Lagun de Tapachichi, Mexico

2:49 PM CDT on September 26, 2017 (GMT -0500)
Temixco Morelos | | Change Station

Elev 5002 ft 18.84 °N, 99.23 °W | Updated 1 minute ago

Partly Cloudy
Partly Cloudy
79.9 °F
Feels Like 83 °F
N
3.0
Wind Variable Wind from SE
Gusts 10.0 mph

Today
High -- | Low -- °F
--% Chance of Precip.
Yesterday
High -- | Low -- °F
Precip. -- in
Pressure 30.20 in
Visibility 5.0 miles
Clouds Mostly Cloudy 1500 ft
Mostly Cloudy 20000 ft
Heat Index 83 °F
Dew Point 69 °F
Humidity 70%
Rainfall 0.02 in
Snow Depth Not available.
7:28 AM 7:30 PM
Waxing Crescent, 38% visible
METAR MMTO 261846Z 12008KT 5SM BKN015 BKN200 22/14 A3020 RMK 8/202 HZY
Pressure 30.20 in
Visibility 5.0 miles
Clouds Mostly Cloudy 1500 ft
Mostly Cloudy 20000 ft
Heat Index 83 °F
Dew Point 69 °F
Humidity 70%
Rainfall 0.02 in
Snow Depth Not available.
7:28 AM 7:30 PM
Waxing Crescent, 38% visible
METAR MMTO 261846Z 12008KT 5SM BKN015 BKN200 22/14 A3020 RMK 8/202 HZY

Get Severe Weather Alerts

Thanks for signing up!

Be on the lookout for a verification email in your inbox.

You'll start receiving the daily forecast at 6 AM.

×

10-Day Weather Forecast

No radar image for this location.
×

Almanac

Astronomy

Sep. 26, 2017 Rise Set
Actual Time
Civil Twilight
Nautical Twilight
Astronomical Twilight
Moon
Length of Visible Light
Length of Day
Tomorrow will be .
, % of the Moon is Illuminated

Today's Extremes

Country Highs Country Lows

Community

WunderPhotos

Category 6

Welcome to Category 6. This is the collective home for Weather Underground's featured writeups by Dr. Jeff Masters (right), Bob Henson (left), Chris Burt, and other regular contributors.

Nearby

Air Quality

  Air Quality AQ Index Pollutant
Not available.

Snow Depth

Station Depth Elevation

Earthquake Activity

City Distance Mag. Time & Date
Minimum magnitude displayed is 2.5.

Coastal Water Temperatures

Place Temperature

Stations

Nearby Weather Stations

Station Location Temp. Windchill Dew Point Humidity Wind Precip. Elev Updated Type